Lorraine — A8IZ3 — position and weather

sailwx.info

Track history (hours):
 
Tides and Currents Weather Stations Pressure Air Temp Water Temp Dewpoint Dewpoint Depression Visibility Wind Speed Wind Dir Waves Ship Positions

Lorraine

Last reported at 2015-May-05 14:29 UTC. Time now 2015-May-07 08:39 UTC.
Position N 22°12' E 119°55'.

Length 221 m; draft 10.5 m.

Type: Ship. MMSI: 636012905.

Date/timePositionNaut miles runAvg speedWind from/ knotsBaromVisibWave heightAir tempDewpointWater temp
2015-May-05 14:29N 22°12' E 119°55'1414.7
2015-May-05 13:33N 22°24' E 120°04'1413.5
2015-May-05 12:33N 22°33' E 120°15'4 3.9
2015-May-05 11:26N 22°33' E 120°19'0 0.0
2015-May-05 10:28N 22°33' E 120°19'0 0.0
2015-May-05 09:33N 22°33' E 120°19'0 0.0
2015-May-05 08:33N 22°33' E 120°19'0 0.0
2015-May-05 07:33N 22°33' E 120°19'0 0.0
2015-May-05 06:33N 22°33' E 120°19'0 0.0
2015-May-05 05:33N 22°33' E 120°19'0 0.0
2015-May-05 04:33N 22°33' E 120°19'0 0.0
2015-May-05 03:33N 22°33' E 120°19'3 2.6
2015-May-05 02:33N 22°33' E 120°17'1 1.3
2015-May-05 01:33N 22°32' E 120°15'1110.8
2015-May-05 00:33N 22°40' E 120°07'1614.6
2015-May-04 23:29N 22°51' E 119°55'40414.4
2015-May-03 19:27N 29°10' E 122°31'1314.3
2015-May-03 18:31N 29°23' E 122°33'1414.7
2015-May-03 17:33N 29°37' E 122°32'1514.7
2015-May-03 16:33N 29°46' E 122°19'1212.4
2015-May-03 15:33N 29°55' E 122°09'1212.3
2015-May-03 14:33N 29°57' E 121°55'3 2.5
2015-May-03 13:23N 29°56' E 121°52'0 0.0
2015-May-03 11:28N 29°56' E 121°52'0 0.0
2015-May-03 10:22N 29°56' E 121°52'0 0.0
2015-May-03 09:21N 29°56' E 121°52'1 1.6
2015-May-03 08:33N 29°57' E 121°54'10 9.6
2015-May-03 07:32N 29°56' E 122°05'1111.3
2015-May-03 06:33N 29°48' E 122°15'9 8.2
2015-May-03 05:30N 29°45' E 122°24'7 7.6
2015-May-03 04:32N 29°46' E 122°32'8111.6
2015-May-02 21:33N 31°06' E 122°22'1414.3
2015-May-02 20:33N 31°13' E 122°07'1514.9
2015-May-02 19:33N 31°17' E 121°50'1110.7
2015-May-02 18:34N 31°20' E 121°39'0 0.0
2015-May-02 17:33N 31°20' E 121°39'0 0.0
2015-May-02 16:31N 31°20' E 121°39'0 0.0
2015-May-02 15:31N 31°20' E 121°39'0 0.0
2015-May-02 14:33N 31°20' E 121°39'0 0.0
2015-May-02 13:33N 31°20' E 121°39'0 0.1
2015-May-02 12:33N 31°20' E 121°39'0 0.0
2015-May-02 11:31N 31°20' E 121°39'0 0.1
2015-May-02 10:31N 31°20' E 121°39'0 0.1
2015-May-02 09:31N 31°20' E 121°39'0 0.0
2015-May-02 08:33N 31°20' E 121°39'0 0.1
2015-May-02 07:31N 31°20' E 121°39'0 0.0
2015-May-02 06:33N 31°20' E 121°39'0 0.1
2015-May-02 05:33N 31°20' E 121°39'3 3.2
2015-May-02 04:33N 31°20' E 121°43'1010.1
2015-May-02 03:33N 31°16' E 121°54'1111.1
2015-May-02 02:33N 31°13' E 122°06'1313.2
2015-May-02 01:33N 31°06' E 122°19'101 5.9
2015-May-01 08:28N 29°28' E 122°50'1011.4
2015-May-01 07:33N 29°19' E 122°45'1212.0
2015-May-01 06:32N 29°08' E 122°39'2812.5
2015-May-01 04:20N 28°43' E 122°25'24412.9
2015-Apr-30 09:24N 25°02' E 120°29'4012.4
2015-Apr-30 06:11N 24°26' E 120°11'2011.7
2015-Apr-30 04:29N 24°07' E 120°03'1410.8
2015-Apr-30 03:10N 23°54' E 119°57'6313.5
2015-Apr-29 22:28N 22°51' E 119°54'1713.6
2015-Apr-29 21:11N 22°39' E 120°08'812.6
2015-Apr-29 20:33N 22°33' E 120°13'6 5.2
2015-Apr-29 19:25N 22°33' E 120°20'0 0.0
2015-Apr-29 18:19N 22°33' E 120°20'0 0.0
2015-Apr-29 17:30N 22°33' E 120°20'0 0.0
2015-Apr-29 16:30N 22°33' E 120°20'0 0.0
2015-Apr-29 15:29N 22°33' E 120°20'0 0.0
2015-Apr-29 14:29N 22°33' E 120°20'0 0.1
2015-Apr-29 13:33N 22°33' E 120°20'6 6.1
2015-Apr-29 12:33N 22°31' E 120°13'1212.2
2015-Apr-29 11:33N 22°19' E 120°12'  
Track history (hours):
 
Tides and Currents Weather Stations Pressure Air Temp Water Temp Dewpoint Dewpoint Depression Visibility Wind Speed Wind Dir Waves Ship Positions

Lorraine

Last reported at 2015-May-05 14:29 UTC. Time now 2015-May-07 08:39 UTC.
Position N 22°12' E 119°55'.

Length 221 m; draft 10.5 m.

Type: Ship. MMSI: 636012905.

Date/timePositionNaut miles runAvg speedWind from/ knotsBaromVisibWave heightAir tempDewpointWater temp
2015-May-05 14:29N 22°12' E 119°55'1414.7
2015-May-05 13:33N 22°24' E 120°04'1413.5
2015-May-05 12:33N 22°33' E 120°15'4 3.9
2015-May-05 11:26N 22°33' E 120°19'0 0.0
2015-May-05 10:28N 22°33' E 120°19'0 0.0
2015-May-05 09:33N 22°33' E 120°19'0 0.0
2015-May-05 08:33N 22°33' E 120°19'0 0.0
2015-May-05 07:33N 22°33' E 120°19'0 0.0
2015-May-05 06:33N 22°33' E 120°19'0 0.0
2015-May-05 05:33N 22°33' E 120°19'0 0.0
2015-May-05 04:33N 22°33' E 120°19'0 0.0
2015-May-05 03:33N 22°33' E 120°19'3 2.6
2015-May-05 02:33N 22°33' E 120°17'1 1.3
2015-May-05 01:33N 22°32' E 120°15'1110.8
2015-May-05 00:33N 22°40' E 120°07'1614.6
2015-May-04 23:29N 22°51' E 119°55'40414.4
2015-May-03 19:27N 29°10' E 122°31'1314.3
2015-May-03 18:31N 29°23' E 122°33'1414.7
2015-May-03 17:33N 29°37' E 122°32'1514.7
2015-May-03 16:33N 29°46' E 122°19'1212.4
2015-May-03 15:33N 29°55' E 122°09'1212.3
2015-May-03 14:33N 29°57' E 121°55'3 2.5
2015-May-03 13:23N 29°56' E 121°52'0 0.0
2015-May-03 11:28N 29°56' E 121°52'0 0.0
2015-May-03 10:22N 29°56' E 121°52'0 0.0
2015-May-03 09:21N 29°56' E 121°52'1 1.6
2015-May-03 08:33N 29°57' E 121°54'10 9.6
2015-May-03 07:32N 29°56' E 122°05'1111.3
2015-May-03 06:33N 29°48' E 122°15'9 8.2
2015-May-03 05:30N 29°45' E 122°24'7 7.6
2015-May-03 04:32N 29°46' E 122°32'8111.6
2015-May-02 21:33N 31°06' E 122°22'1414.3
2015-May-02 20:33N 31°13' E 122°07'1514.9
2015-May-02 19:33N 31°17' E 121°50'1110.7
2015-May-02 18:34N 31°20' E 121°39'0 0.0
2015-May-02 17:33N 31°20' E 121°39'0 0.0
2015-May-02 16:31N 31°20' E 121°39'0 0.0
2015-May-02 15:31N 31°20' E 121°39'0 0.0
2015-May-02 14:33N 31°20' E 121°39'0 0.0
2015-May-02 13:33N 31°20' E 121°39'0 0.1
2015-May-02 12:33N 31°20' E 121°39'0 0.0
2015-May-02 11:31N 31°20' E 121°39'0 0.1
2015-May-02 10:31N 31°20' E 121°39'0 0.1
2015-May-02 09:31N 31°20' E 121°39'0 0.0
2015-May-02 08:33N 31°20' E 121°39'0 0.1
2015-May-02 07:31N 31°20' E 121°39'0 0.0
2015-May-02 06:33N 31°20' E 121°39'0 0.1
2015-May-02 05:33N 31°20' E 121°39'3 3.2
2015-May-02 04:33N 31°20' E 121°43'1010.1
2015-May-02 03:33N 31°16' E 121°54'1111.1
2015-May-02 02:33N 31°13' E 122°06'1313.2
2015-May-02 01:33N 31°06' E 122°19'101 5.9
2015-May-01 08:28N 29°28' E 122°50'1011.4
2015-May-01 07:33N 29°19' E 122°45'1212.0
2015-May-01 06:32N 29°08' E 122°39'2812.5
2015-May-01 04:20N 28°43' E 122°25'24412.9
2015-Apr-30 09:24N 25°02' E 120°29'4012.4
2015-Apr-30 06:11N 24°26' E 120°11'2011.7
2015-Apr-30 04:29N 24°07' E 120°03'1410.8
2015-Apr-30 03:10N 23°54' E 119°57'6313.5
2015-Apr-29 22:28N 22°51' E 119°54'1713.6
2015-Apr-29 21:11N 22°39' E 120°08'812.6
2015-Apr-29 20:33N 22°33' E 120°13'6 5.2
2015-Apr-29 19:25N 22°33' E 120°20'0 0.0
2015-Apr-29 18:19N 22°33' E 120°20'0 0.0
2015-Apr-29 17:30N 22°33' E 120°20'0 0.0
2015-Apr-29 16:30N 22°33' E 120°20'0 0.0
2015-Apr-29 15:29N 22°33' E 120°20'0 0.0
2015-Apr-29 14:29N 22°33' E 120°20'0 0.1
2015-Apr-29 13:33N 22°33' E 120°20'6 6.1
2015-Apr-29 12:33N 22°31' E 120°13'1212.2
2015-Apr-29 11:33N 22°19' E 120°12'  

Dump ship's entire track history